Weather at Phillip Island Heliport

Public forecast

Using degrees Celsius for public forecast. Weather courtesy of forecast.io.

Closest aviation weather report (METAR) to Phillip Island Heliport

Closest report is Avalon Airport, 49.8 nm (92.2 km) NW.

2024/06/22 05:30 (retrieved 26 minutes ago)

YMAV 220530Z AUTO 19011KT 9999 // OVC039 12/04 Q1029 RF000/0000

Closest aviation forecast (TAF) to Phillip Island Heliport

Forecast is more than 6 hours old.

Closest forecast is Nouméa Magenta Airport, 1,460.4 nm (2,704.6 km) NE.

2024/06/21 18:00 (retrieved 12 hours ago)

TAF NWWM 211700Z 2118/2218 06008KT 9999 FEW030 SCT040 BECMG 2122/2124 14010KT BECMG 2206/2208 08005KT